Time;durP1;ratioP1;P1;durP2;ratioP2;P2;SDS_P1;SDS_P2;PMS_P1;PMS_P2;Temp;Humidity;BMP_temperature;BMP_pressure;BME280_temperature;BME280_humidity;BME280_pressure;Samples;Min_cycle;Max_cycle;Signal;HPM_P1;HPM_P2
2022/05/05 00:00:49;;;;;;;7.53;3.58;;;;;;;12.29;84.36;100922.41;5214458;28;20029;-79
2022/05/05 00:03:20;;;;;;;7.68;3.80;;;;;;;12.25;84.26;100926.88;5213419;28;20034;-79
2022/05/05 00:05:50;;;;;;;8.93;3.80;;;;;;;12.18;84.71;100935.88;5214760;28;20036;-79
2022/05/05 00:08:20;;;;;;;10.10;3.58;;;;;;;12.19;84.88;100927.13;5218237;28;20091;-78
2022/05/05 00:16:29;;;;;;;9.07;3.92;;;;;;;12.06;83.01;100931.09;5216101;28;20407;-79
2022/05/05 00:18:59;;;;;;;8.02;3.60;;;;;;;12.13;83.60;100922.06;5217509;28;20024;-79
2022/05/05 00:21:29;;;;;;;8.10;3.40;;;;;;;12.11;82.87;100918.66;5217763;28;20037;-79
2022/05/05 00:23:59;;;;;;;11.13;3.65;;;;;;;12.01;82.75;100925.16;5216396;28;20549;-78
2022/05/05 00:26:30;;;;;;;8.27;3.38;;;;;;;11.95;83.36;100927.16;5211778;28;20411;-78
2022/05/05 00:29:00;;;;;;;7.07;2.72;;;;;;;11.78;83.47;100935.56;5215329;28;20080;-78
2022/05/05 00:31:31;;;;;;;8.82;3.33;;;;;;;11.68;84.17;100935.94;5210100;28;20029;-79
2022/05/05 00:34:01;;;;;;;7.57;3.30;;;;;;;11.60;83.63;100936.22;5206054;28;20017;-78
2022/05/05 00:36:31;;;;;;;9.05;3.78;;;;;;;11.75;83.96;100935.69;5217440;28;20032;-79
2022/05/05 00:39:03;;;;;;;8.32;3.22;;;;;;;11.74;83.84;100939.22;5217046;28;20029;-78
2022/05/05 00:41:44;;;;;;;8.82;3.30;;;;;;;11.67;83.49;100942.97;5217103;28;20032;-78
2022/05/05 00:44:15;;;;;;;6.75;3.30;;;;;;;11.68;83.31;100935.94;5219787;28;20029;-79
2022/05/05 00:46:48;;;;;;;6.70;3.00;;;;;;;11.83;83.17;100936.28;5211863;28;20514;-79
2022/05/05 00:49:19;;;;;;;10.38;3.10;;;;;;;11.85;82.40;100939.72;5217139;28;20039;-78
2022/05/05 00:51:49;;;;;;;10.05;3.35;;;;;;;11.77;82.93;100943.50;5220964;28;20016;-78
2022/05/05 00:54:19;;;;;;;8.13;3.10;;;;;;;11.90;82.69;100929.03;5217319;28;20056;-79
2022/05/05 00:56:51;;;;;;;9.00;3.17;;;;;;;11.94;82.70;100935.91;5218043;28;20043;-78
2022/05/05 00:59:21;;;;;;;6.85;2.97;;;;;;;11.76;83.63;100936.56;5216090;28;20455;-79
2022/05/05 01:01:52;;;;;;;12.50;3.20;;;;;;;11.74;83.34;100941.84;5217285;28;20312;-79
2022/05/05 01:04:22;;;;;;;9.43;3.35;;;;;;;11.86;83.78;100943.16;5215943;28;20100;-78
2022/05/05 01:06:52;;;;;;;12.15;3.30;;;;;;;11.79;82.91;100945.13;5217649;28;20475;-78
2022/05/05 01:09:23;;;;;;;7.75;2.92;;;;;;;11.74;83.68;100944.44;5222313;28;20025;-78
2022/05/05 01:11:53;;;;;;;6.28;3.10;;;;;;;11.67;83.43;100953.44;5217425;28;20033;-78
2022/05/05 01:14:24;;;;;;;7.93;3.17;;;;;;;11.95;84.00;100953.34;5220809;28;20459;-78
2022/05/05 01:16:54;;;;;;;8.07;3.30;;;;;;;11.79;83.99;100950.38;5215847;28;20026;-79
2022/05/05 01:19:24;;;;;;;8.10;3.03;;;;;;;11.72;83.59;100953.25;5223300;28;20561;-79
2022/05/05 01:21:57;;;;;;;8.82;3.60;;;;;;;11.78;83.89;100955.69;5219605;28;20563;-79
2022/05/05 01:30:06;;;;;;;7.88;2.95;;;;;;;11.70;84.01;100968.16;5217708;28;20031;-79
2022/05/05 01:32:36;;;;;;;12.38;3.33;;;;;;;11.84;83.42;100968.56;5215447;28;20029;-78
2022/05/05 01:35:07;;;;;;;10.63;2.83;;;;;;;11.63;84.39;100970.13;5216054;28;20024;-78
2022/05/05 01:37:37;;;;;;;8.45;2.97;;;;;;;11.74;83.38;100972.38;5217026;28;20029;-79
2022/05/05 01:40:08;;;;;;;6.93;2.90;;;;;;;11.70;83.41;100974.28;5220361;28;20024;-78
2022/05/05 01:42:39;;;;;;;8.82;3.00;;;;;;;11.67;83.63;100974.38;5217434;28;20045;-79
2022/05/05 01:45:09;;;;;;;7.65;2.90;;;;;;;11.67;83.47;100982.25;5219746;28;20483;-79
2022/05/05 01:47:40;;;;;;;11.63;3.30;;;;;;;11.49;82.53;100984.56;5216144;28;20064;-79
2022/05/05 01:50:10;;;;;;;8.40;2.90;;;;;;;11.45;82.38;100988.19;5222527;28;20432;-79
2022/05/05 01:52:40;;;;;;;7.15;2.90;;;;;;;11.38;82.72;100982.28;5215261;28;20020;-79
2022/05/05 01:55:12;;;;;;;8.88;3.00;;;;;;;11.32;83.31;100997.34;5218611;28;20064;-79
2022/05/05 01:57:42;;;;;;;8.57;2.90;;;;;;;11.37;83.00;100998.03;5217015;28;20025;-79
2022/05/05 02:00:14;;;;;;;9.18;3.17;;;;;;;11.44;83.46;100999.56;5218628;28;20536;-77
2022/05/05 02:02:45;;;;;;;9.77;2.92;;;;;;;11.42;82.35;101009.22;5221085;28;20455;-79
2022/05/05 02:05:16;;;;;;;8.55;3.15;;;;;;;11.46;82.47;101010.84;5222058;28;20033;-78
2022/05/05 02:07:47;;;;;;;8.68;2.90;;;;;;;11.32;83.00;101007.81;5225401;28;20031;-78
2022/05/05 02:10:20;;;;;;;6.07;2.42;;;;;;;11.39;82.39;101009.31;5225708;28;20261;-78
2022/05/05 02:12:53;;;;;;;5.95;2.40;;;;;;;11.22;82.95;101011.59;5222499;28;20049;-78
2022/05/05 02:15:23;;;;;;;12.68;2.80;;;;;;;11.18;83.19;101018.69;5224971;28;20029;-78
2022/05/05 02:17:54;;;;;;;7.25;2.47;;;;;;;11.11;83.21;101014.53;5222563;28;20029;-79
2022/05/05 02:20:24;;;;;;;9.10;2.90;;;;;;;11.13;82.35;101017.13;5227966;28;20037;-79
2022/05/05 02:22:54;;;;;;;6.75;2.67;;;;;;;10.99;82.86;101019.31;5223879;28;20234;-77
2022/05/05 02:25:24;;;;;;;8.57;2.67;;;;;;;10.92;83.67;101023.00;5220259;28;20033;-77
2022/05/05 02:27:55;;;;;;;5.70;2.40;;;;;;;11.05;83.58;101019.97;5222273;28;20279;-78
2022/05/05 02:30:27;;;;;;;7.38;2.67;;;;;;;11.04;83.26;101031.34;5218422;28;20291;-78
2022/05/05 02:32:57;;;;;;;8.93;2.75;;;;;;;10.93;84.85;101026.47;5222061;28;20021;-77
2022/05/05 02:35:27;;;;;;;5.82;2.53;;;;;;;10.83;86.08;101022.44;5217944;28;20104;-77
2022/05/05 02:40:47;;;;;;;7.38;2.67;;;;;;;10.97;84.02;101020.25;5223664;28;20029;-78
2022/05/05 02:43:17;;;;;;;9.02;3.20;;;;;;;10.95;83.63;101022.91;5221499;28;20022;-78
2022/05/05 02:45:49;;;;;;;10.10;2.85;;;;;;;10.82;86.08;101034.63;5224566;28;20032;-78
2022/05/05 02:48:19;;;;;;;10.75;3.55;;;;;;;11.05;83.08;101035.66;5224013;28;20056;-77
2022/05/05 02:50:49;;;;;;;8.40;3.05;;;;;;;11.10;82.98;101038.16;5222434;28;20029;-78
2022/05/05 02:56:08;;;;;;;8.13;2.70;;;;;;;11.16;82.59;101028.38;5222944;28;20252;-78
2022/05/05 02:58:39;;;;;;;11.48;2.65;;;;;;;11.05;82.90;101030.44;5218890;28;20064;-76
2022/05/05 03:01:09;;;;;;;8.15;2.70;;;;;;;10.95;82.73;101028.16;5220601;28;20059;-78
2022/05/05 03:03:39;;;;;;;8.45;2.53;;;;;;;10.86;84.01;101035.41;5219038;28;20025;-77
2022/05/05 03:06:10;;;;;;;6.90;2.60;;;;;;;10.70;84.48;101029.75;5221127;28;20459;-78
2022/05/05 03:08:40;;;;;;;8.30;2.67;;;;;;;10.65;85.19;101036.03;5225199;28;20041;-78
2022/05/05 03:11:11;;;;;;;9.82;3.00;;;;;;;10.54;84.19;101043.31;5224535;28;20024;-79
2022/05/05 03:13:41;;;;;;;9.75;2.78;;;;;;;10.65;83.88;101033.41;5222597;28;20039;-78
2022/05/05 03:16:11;;;;;;;10.05;3.67;;;;;;;10.57;84.34;101035.38;5221502;28;20017;-78
2022/05/05 03:18:42;;;;;;;8.48;3.10;;;;;;;10.43;85.32;101040.13;5223110;28;20079;-78
2022/05/05 03:21:13;;;;;;;6.53;2.65;;;;;;;10.30;85.58;101043.97;5223364;28;20028;-78
2022/05/05 03:23:43;;;;;;;6.63;2.70;;;;;;;10.16;85.39;101043.50;5222318;28;20085;-78
2022/05/05 03:26:13;;;;;;;10.50;3.10;;;;;;;10.10;86.09;101046.25;5218765;28;20029;-78
2022/05/05 03:28:44;;;;;;;6.13;2.80;;;;;;;10.12;86.46;101052.28;5219895;28;20266;-78
2022/05/05 03:31:14;;;;;;;7.03;2.67;;;;;;;10.11;86.31;101045.34;5219856;28;20025;-78
2022/05/05 03:33:45;;;;;;;8.15;2.67;;;;;;;10.02;86.25;101054.28;5219776;28;20108;-78
2022/05/05 03:36:15;;;;;;;10.95;2.78;;;;;;;10.01;86.58;101056.91;5220360;28;20032;-79
2022/05/05 03:38:46;;;;;;;6.93;2.70;;;;;;;9.79;86.95;101053.97;5225133;28;20059;-77
2022/05/05 03:41:16;;;;;;;7.13;2.83;;;;;;;9.69;87.56;101059.47;5223729;28;20055;-79
2022/05/05 03:43:47;;;;;;;7.07;2.88;;;;;;;9.59;87.59;101061.44;5221105;28;20021;-78
2022/05/05 03:46:18;;;;;;;9.23;2.88;;;;;;;9.59;88.28;101066.66;5221893;28;20033;-77
2022/05/05 03:48:48;;;;;;;8.20;3.00;;;;;;;9.54;87.87;101068.53;5220775;28;20032;-78
2022/05/05 03:51:18;;;;;;;11.10;2.90;;;;;;;9.41;88.38;101067.09;5222183;28;20136;-77
2022/05/05 03:53:49;;;;;;;8.85;2.85;;;;;;;9.59;88.10;101071.00;5221381;28;20022;-77
2022/05/05 03:56:19;;;;;;;8.85;2.78;;;;;;;9.54;87.39;101072.88;5218639;28;20521;-77
2022/05/05 03:58:49;;;;;;;5.97;2.70;;;;;;;9.62;87.78;101071.81;5220148;28;20060;-77
2022/05/05 04:01:19;;;;;;;11.55;3.05;;;;;;;9.43;87.83;101075.75;5218365;28;20037;-77
2022/05/05 04:03:50;;;;;;;8.45;2.53;;;;;;;9.60;88.36;101073.59;5221182;28;20503;-78
2022/05/05 04:06:20;;;;;;;7.50;2.67;;;;;;;9.55;88.25;101079.81;5220809;28;20087;-78
2022/05/05 04:08:50;;;;;;;7.55;2.72;;;;;;;9.50;86.65;101073.84;5222388;28;20035;-78
2022/05/05 04:11:20;;;;;;;6.55;2.63;;;;;;;9.43;87.72;101072.25;5221244;28;20025;-78
2022/05/05 04:13:51;;;;;;;8.15;2.65;;;;;;;9.26;88.22;101087.44;5216463;28;20033;-77
2022/05/05 04:16:21;;;;;;;7.95;2.55;;;;;;;9.60;86.95;101076.19;5217732;28;20538;-77
2022/05/05 04:18:51;;;;;;;8.70;3.10;;;;;;;9.70;86.90;101084.66;5218238;28;20450;-77
2022/05/05 04:21:22;;;;;;;8.23;2.63;;;;;;;9.90;86.25;101087.66;5218201;28;20033;-77
2022/05/05 04:23:52;;;;;;;9.27;3.05;;;;;;;9.83;86.50;101089.53;5215349;28;20060;-77
2022/05/05 04:26:24;;;;;;;10.63;3.22;;;;;;;9.91;85.64;101094.59;5212436;28;20052;-77
2022/05/05 04:28:58;;;;;;;7.38;2.92;;;;;;;9.75;86.24;101093.25;5215115;28;20082;-77
2022/05/05 04:31:31;;;;;;;8.20;3.33;;;;;;;9.85;85.82;101097.34;5212222;28;20052;-77
2022/05/05 04:34:03;;;;;;;7.60;2.90;;;;;;;9.23;88.62;101109.25;5214906;28;20384;-77
2022/05/05 04:36:34;;;;;;;6.78;2.50;;;;;;;9.44;88.97;101105.28;5215550;28;20048;-76
2022/05/05 04:39:05;;;;;;;8.32;2.67;;;;;;;9.62;87.04;101097.06;5218022;28;20043;-76
2022/05/05 04:41:36;;;;;;;8.48;2.95;;;;;;;10.16;85.98;101095.75;5218411;28;20037;-77
2022/05/05 04:44:06;;;;;;;5.73;2.40;;;;;;;10.41;86.39;101094.19;5217023;28;20021;-76
2022/05/05 04:46:37;;;;;;;5.35;2.40;;;;;;;11.29;81.16;101091.63;5214917;28;20344;-76
2022/05/05 04:49:08;;;;;;;7.43;2.30;;;;;;;11.79;78.65;101094.41;5218979;28;20475;-78
2022/05/05 04:51:38;;;;;;;6.15;2.10;;;;;;;11.92;77.75;101098.34;5220467;28;20049;-77
2022/05/05 04:54:08;;;;;;;6.00;2.40;;;;;;;13.11;76.37;101101.13;5219421;28;20033;-78
2022/05/05 04:56:39;;;;;;;6.70;2.10;;;;;;;14.39;67.71;101090.66;5217233;28;20056;-76
2022/05/05 04:59:09;;;;;;;5.03;2.20;;;;;;;14.45;69.57;101093.88;5216708;28;20041;-78
2022/05/05 05:01:39;;;;;;;8.00;2.08;;;;;;;14.63;67.69;101090.44;5217819;28;20490;-77
2022/05/05 05:04:10;;;;;;;4.68;2.22;;;;;;;15.62;65.28;101089.34;5217980;28;20104;-77
2022/05/05 05:06:40;;;;;;;8.93;2.20;;;;;;;15.99;64.14;101097.16;5219884;28;20048;-77
2022/05/05 05:09:10;;;;;;;5.27;2.00;;;;;;;16.01;64.38;101092.66;5223609;28;20286;-76
2022/05/05 05:11:40;;;;;;;5.80;1.95;;;;;;;14.29;71.51;101107.75;5222787;28;20302;-78
2022/05/05 05:14:11;;;;;;;7.83;2.10;;;;;;;15.81;68.78;101091.91;5222535;28;20055;-77
2022/05/05 05:16:41;;;;;;;7.78;2.33;;;;;;;17.46;62.91;101092.00;5219977;28;20292;-76
2022/05/05 05:19:11;;;;;;;9.97;2.50;;;;;;;16.27;69.95;101100.16;5221543;28;20022;-76
2022/05/05 05:21:41;;;;;;;5.80;2.10;;;;;;;17.85;62.32;101092.41;5216204;28;20362;-77
2022/05/05 05:24:13;;;;;;;4.17;1.90;;;;;;;18.79;58.26;101084.94;5219745;28;20024;-79
2022/05/05 05:26:43;;;;;;;6.93;2.00;;;;;;;19.05;58.26;101091.28;5218573;28;20364;-77
2022/05/05 05:29:14;;;;;;;8.80;2.23;;;;;;;17.08;61.59;101098.47;5218337;28;20439;-77
2022/05/05 05:31:44;;;;;;;6.57;2.17;;;;;;;18.44;58.31;101100.38;5214117;28;20268;-77
2022/05/05 05:34:14;;;;;;;5.43;2.40;;;;;;;21.54;51.79;101083.94;5215594;28;20027;-78
2022/05/05 05:36:45;;;;;;;6.30;2.30;;;;;;;21.49;52.75;101091.41;5221097;28;20025;-78
2022/05/05 05:39:19;;;;;;;7.00;1.88;;;;;;;23.86;49.50;101080.84;5227714;28;20548;-77
2022/05/05 05:41:49;;;;;;;5.57;2.20;;;;;;;22.69;50.96;101093.81;5224177;28;20036;-78
2022/05/05 05:44:19;;;;;;;5.70;2.13;;;;;;;23.21;48.37;101091.44;5225937;28;20028;-78
2022/05/05 05:46:49;;;;;;;7.33;2.07;;;;;;;23.89;48.52;101100.09;5221431;28;20627;-78
2022/05/05 05:49:19;;;;;;;6.40;2.10;;;;;;;24.37;47.06;101096.03;5224779;28;20033;-79
2022/05/05 05:51:50;;;;;;;5.00;2.23;;;;;;;25.42;46.44;101092.16;5225212;28;20271;-77
2022/05/05 05:54:20;;;;;;;9.43;2.50;;;;;;;21.18;51.19;101107.00;5221109;28;20168;-78
2022/05/05 05:56:50;;;;;;;7.47;2.13;;;;;;;21.43;52.03;101098.97;5223309;28;20267;-77
2022/05/05 05:59:21;;;;;;;6.20;1.93;;;;;;;22.51;50.89;101096.19;5220942;28;20057;-77
2022/05/05 06:04:40;;;;;;;5.13;2.10;;;;;;;20.96;53.10;101112.13;5225122;28;20263;-77
2022/05/05 06:07:10;;;;;;;7.43;2.10;;;;;;;20.16;54.58;101122.06;5222459;28;20025;-78
2022/05/05 06:09:40;;;;;;;6.60;2.10;;;;;;;20.03;53.89;101118.53;5226866;28;20088;-76
2022/05/05 06:12:11;;;;;;;6.20;2.00;;;;;;;21.37;50.35;101115.41;5223419;28;20263;-77
2022/05/05 06:14:41;;;;;;;8.20;1.80;;;;;;;22.24;49.08;101108.91;5224027;28;20031;-78
2022/05/05 06:17:11;;;;;;;7.87;2.00;;;;;;;21.51;50.06;101120.56;5220610;28;20029;-78
2022/05/05 06:19:43;;;;;;;6.20;1.90;;;;;;;22.18;48.39;101112.03;5225678;28;20368;-78
2022/05/05 06:22:13;;;;;;;6.20;1.90;;;;;;;20.97;49.79;101119.13;5224761;28;20293;-77
2022/05/05 06:24:43;;;;;;;9.40;2.07;;;;;;;19.54;52.47;101125.25;5222010;28;20028;-77
2022/05/05 06:27:14;;;;;;;8.18;2.05;;;;;;;19.73;52.09;101123.13;5221806;28;20307;-78
2022/05/05 06:29:44;;;;;;;7.35;1.63;;;;;;;20.07;51.99;101125.34;5223865;28;20506;-78
2022/05/05 06:32:17;;;;;;;5.15;1.83;;;;;;;20.97;51.88;101119.13;5223795;28;20108;-78
2022/05/05 06:34:47;;;;;;;11.63;2.15;;;;;;;21.31;50.40;101118.47;5223887;28;20052;-79
2022/05/05 06:37:18;;;;;;;6.75;1.80;;;;;;;20.94;50.59;101130.84;5224868;28;20114;-78
2022/05/05 06:39:49;;;;;;;7.07;1.90;;;;;;;22.30;49.50;101116.44;5228478;28;20021;-78
2022/05/05 06:42:19;;;;;;;7.93;1.90;;;;;;;23.33;47.96;101111.84;5215048;28;20530;-79
2022/05/05 06:44:50;;;;;;;7.25;2.00;;;;;;;22.64;47.67;101124.47;5224941;28;20238;-78
2022/05/05 06:47:20;;;;;;;9.07;2.33;;;;;;;21.32;48.83;101128.16;5224715;28;20449;-78
2022/05/05 06:49:50;;;;;;;8.50;2.60;;;;;;;23.25;47.40;101127.63;5229192;28;20275;-79
2022/05/05 06:52:21;;;;;;;8.33;2.50;;;;;;;22.98;48.35;101119.06;5226726;28;20032;-79
2022/05/05 06:54:51;;;;;;;4.70;2.03;;;;;;;24.64;44.91;101120.47;5226813;28;20275;-78
2022/05/05 06:57:21;;;;;;;5.70;2.27;;;;;;;23.61;45.57;101122.00;5221905;28;20303;-79
2022/05/05 06:59:52;;;;;;;9.07;2.33;;;;;;;24.99;44.68;101121.81;5219794;28;20471;-78
2022/05/05 07:02:22;;;;;;;8.02;2.33;;;;;;;24.93;44.56;101127.69;5222023;28;20291;-78
2022/05/05 07:07:41;;;;;;;6.20;2.25;;;;;;;24.41;44.74;101139.41;5224592;28;20025;-78
2022/05/05 07:13:01;;;;;;;9.35;2.30;;;;;;;23.89;45.74;101142.84;5229027;28;20035;-79
2022/05/05 07:15:32;;;;;;;7.93;2.20;;;;;;;26.97;42.89;101136.59;5228874;28;20085;-79
2022/05/05 07:18:04;;;;;;;7.35;2.40;;;;;;;26.92;42.57;101138.03;5224403;28;20028;-79
2022/05/05 07:20:34;;;;;;;8.77;2.30;;;;;;;25.44;42.70;101149.97;5225658;28;20096;-79
2022/05/05 07:23:07;;;;;;;8.35;2.58;;;;;;;23.86;46.17;101145.75;5222796;28;20067;-80
2022/05/05 07:25:37;;;;;;;6.82;2.40;;;;;;;24.27;44.96;101148.56;5220455;28;20044;-78
2022/05/05 07:28:08;;;;;;;5.97;2.15;;;;;;;23.70;45.21;101145.28;5222771;28;20025;-79
2022/05/05 07:30:39;;;;;;;7.55;2.53;;;;;;;25.48;43.11;101146.03;5220526;28;20030;-79
2022/05/05 07:33:09;;;;;;;8.73;2.70;;;;;;;24.36;43.66;101149.63;5222176;28;20032;-78
2022/05/05 07:35:39;;;;;;;8.75;2.40;;;;;;;27.88;40.12;101136.69;5221313;28;20081;-79
2022/05/05 07:38:10;;;;;;;5.97;2.10;;;;;;;27.30;41.48;101137.94;5222141;28;20043;-78
2022/05/05 07:40:40;;;;;;;6.35;2.50;;;;;;;25.60;42.87;101146.75;5222989;28;20397;-79
2022/05/05 07:43:10;;;;;;;6.60;2.23;;;;;;;24.81;43.29;101154.66;5227049;28;20059;-78
2022/05/05 07:45:41;;;;;;;6.57;2.20;;;;;;;26.55;41.63;101149.66;5225749;28;20033;-79
2022/05/05 07:48:11;;;;;;;9.82;2.58;;;;;;;27.13;41.06;101147.59;5222275;28;20024;-80
2022/05/05 07:50:41;;;;;;;7.43;2.20;;;;;;;25.72;42.62;101159.94;5224247;28;20025;-79
2022/05/05 07:53:12;;;;;;;6.18;2.20;;;;;;;26.27;42.63;101159.38;5221620;28;20274;-78
2022/05/05 07:55:42;;;;;;;8.57;2.20;;;;;;;26.21;42.29;101151.88;5219485;28;20045;-79
2022/05/05 07:58:12;;;;;;;8.33;1.93;;;;;;;26.43;42.86;101150.75;5219162;28;20475;-79
2022/05/05 08:00:42;;;;;;;7.63;2.27;;;;;;;26.96;41.89;101147.50;5223104;28;20279;-78
2022/05/05 08:03:13;;;;;;;9.97;2.70;;;;;;;26.70;41.73;101153.59;5227262;28;20129;-79
2022/05/05 08:05:44;;;;;;;12.40;2.65;;;;;;;26.72;41.52;101165.03;5227597;28;20318;-79
2022/05/05 08:08:14;;;;;;;6.68;2.55;;;;;;;25.97;43.35;101161.31;5227788;28;20029;-75
2022/05/05 08:10:44;;;;;;;8.30;2.53;;;;;;;26.84;42.47;101156.69;5231837;28;20486;-78
2022/05/05 08:13:15;;;;;;;7.18;2.10;;;;;;;26.58;42.35;101162.78;5233161;28;20274;-78
2022/05/05 08:15:45;;;;;;;8.20;3.10;;;;;;;27.51;41.28;101162.72;5231217;28;20136;-76
2022/05/05 08:18:15;;;;;;;7.23;2.30;;;;;;;23.89;45.39;101172.22;5229213;28;20036;-79
2022/05/05 08:20:45;;;;;;;6.43;2.33;;;;;;;27.11;41.53;101160.31;5232398;28;20274;-78
2022/05/05 08:23:16;;;;;;;9.23;2.43;;;;;;;27.56;40.67;101158.63;5227713;28;20021;-77
2022/05/05 08:28:36;;;;;;;9.13;2.30;;;;;;;28.47;38.95;101164.72;5228820;28;20142;-76
2022/05/05 08:31:07;;;;;;;8.07;2.33;;;;;;;27.80;39.53;101175.06;5225174;28;20029;-80
2022/05/05 08:33:38;;;;;;;7.47;2.35;;;;;;;26.82;41.49;101167.59;5228249;28;20077;-78
2022/05/05 08:36:09;;;;;;;8.05;2.60;;;;;;;26.33;41.61;101176.72;5226420;28;20037;-76
2022/05/05 08:38:39;;;;;;;7.30;2.40;;;;;;;24.76;42.70;101180.94;5227965;28;20052;-76
2022/05/05 08:41:12;;;;;;;6.60;2.40;;;;;;;26.56;41.47;101171.00;5229187;28;20033;-76
2022/05/05 08:43:42;;;;;;;7.32;2.15;;;;;;;26.59;40.75;101177.88;5233442;28;20298;-79
2022/05/05 08:46:14;;;;;;;8.27;2.55;;;;;;;26.69;40.70;101184.94;5229086;28;20396;-79
2022/05/05 08:48:44;;;;;;;6.68;2.13;;;;;;;28.20;40.27;101172.00;5230286;28;20116;-77
2022/05/05 08:51:18;;;;;;;7.60;2.28;;;;;;;28.55;38.64;101172.03;5230451;28;20040;-77
2022/05/05 08:53:53;;;;;;;6.25;1.80;;;;;;;26.69;38.94;101184.09;5228456;28;20106;-78
2022/05/05 08:56:23;;;;;;;5.95;2.08;;;;;;;26.58;39.81;101181.56;5225424;28;20033;-76
2022/05/05 08:58:53;;;;;;;5.30;1.95;;;;;;;27.65;40.10;101181.88;5228500;28;20035;-76
2022/05/05 09:01:26;;;;;;;6.35;2.05;;;;;;;26.40;40.82;101184.09;5225127;28;20018;-77
2022/05/05 09:03:56;;;;;;;8.40;1.95;;;;;;;24.00;43.40;101187.38;5228040;28;20087;-75
2022/05/05 09:06:43;;;;;;;6.50;2.20;;;;;;;22.96;43.88;101193.00;5224946;28;20030;-78
2022/05/05 09:09:24;;;;;;;6.43;2.20;;;;;;;22.85;44.78;101195.63;5228267;28;20040;-79
2022/05/05 09:12:23;;;;;;;8.95;2.53;;;;;;;22.66;45.72;101199.84;5236386;28;20029;-75
2022/05/05 09:14:55;;;;;;;6.95;2.10;;;;;;;22.21;44.75;101202.34;5223896;28;20030;-78
2022/05/05 09:17:28;;;;;;;7.10;2.58;;;;;;;21.47;45.47;101206.88;5232262;28;20028;-80
2022/05/05 09:19:59;;;;;;;6.22;2.22;;;;;;;21.97;46.62;101205.00;5234107;28;20036;-76
2022/05/05 09:22:29;;;;;;;7.75;2.42;;;;;;;21.23;46.64;101211.25;5231005;28;20025;-74
2022/05/05 09:25:02;;;;;;;7.10;2.13;;;;;;;21.30;46.43;101213.38;5224811;28;20104;-75
2022/05/05 09:27:33;;;;;;;7.97;2.45;;;;;;;21.18;46.24;101214.22;5231146;28;20098;-77
2022/05/05 09:30:07;;;;;;;4.88;2.17;;;;;;;20.85;47.85;101220.97;5230184;28;20036;-77
2022/05/05 09:32:40;;;;;;;6.50;2.50;;;;;;;21.01;47.18;101213.66;5229720;28;20174;-75
2022/05/05 09:35:13;;;;;;;5.40;2.53;;;;;;;21.10;46.87;101215.69;5231109;28;20029;-78
2022/05/05 09:37:52;;;;;;;8.20;2.30;;;;;;;20.68;48.54;101211.44;5222165;28;20096;-79
2022/05/05 09:40:24;;;;;;;7.63;2.80;;;;;;;20.37;49.85;101212.72;5231600;28;20142;-74
2022/05/05 09:42:57;;;;;;;4.65;2.33;;;;;;;21.27;49.63;101215.41;5235576;28;20083;-77
2022/05/05 09:45:33;;;;;;;5.18;2.25;;;;;;;20.69;47.62;101214.97;5235592;28;20056;-76
2022/05/05 09:48:05;;;;;;;7.43;2.20;;;;;;;20.75;47.71;101211.91;5228812;28;21115;-76
2022/05/05 09:50:38;;;;;;;6.53;2.25;;;;;;;20.89;47.24;101225.16;5224507;28;20032;-75
2022/05/05 09:58:49;;;;;;;4.82;1.80;;;;;;;20.34;45.64;101219.13;5232121;28;20040;-75
2022/05/05 10:01:25;;;;;;;6.72;2.25;;;;;;;19.92;47.53;101219.19;5224831;28;20033;-81
2022/05/05 10:04:03;;;;;;;6.65;2.22;;;;;;;20.44;48.22;101220.19;5219973;28;20026;-79
2022/05/05 10:06:42;;;;;;;7.22;2.20;;;;;;;20.47;47.98;101216.50;5222286;28;20045;-80
2022/05/05 10:09:14;;;;;;;5.38;1.92;;;;;;;19.59;47.57;101223.13;5223095;28;20020;-80
2022/05/05 10:11:45;;;;;;;6.72;1.80;;;;;;;19.85;47.62;101224.97;5223862;28;20036;-79
2022/05/05 10:14:18;;;;;;;4.80;1.77;;;;;;;19.47;48.41;101226.50;5219397;28;20025;-79
2022/05/05 10:16:49;;;;;;;3.78;1.58;;;;;;;19.91;47.64;101217.47;5212015;28;20035;-79
2022/05/05 10:19:19;;;;;;;5.35;1.50;;;;;;;20.02;47.55;101222.13;5217478;28;20086;-77
2022/05/05 10:22:08;;;;;;;9.77;2.00;;;;;;;19.52;48.27;101221.78;5222134;28;20025;-77
2022/05/05 10:24:48;;;;;;;5.10;2.10;;;;;;;18.78;49.13;101226.25;5228179;28;20283;-77
2022/05/05 10:27:19;;;;;;;6.25;2.00;;;;;;;19.33;50.83;101215.91;5227040;28;20029;-76
2022/05/05 10:29:49;;;;;;;8.52;1.80;;;;;;;19.87;52.02;101218.63;5226230;28;20033;-78
2022/05/05 10:32:22;;;;;;;5.10;1.90;;;;;;;19.90;49.63;101220.22;5226166;28;20039;-78
2022/05/05 10:35:15;;;;;;;6.07;2.17;;;;;;;20.15;50.57;101209.78;5224981;28;20301;-78
2022/05/05 10:37:46;;;;;;;6.60;2.28;;;;;;;20.18;50.64;101207.78;5222769;28;20044;-77
2022/05/05 10:40:17;;;;;;;7.47;2.35;;;;;;;20.17;49.06;101211.41;5226309;28;20029;-79
2022/05/05 10:42:51;;;;;;;6.72;2.05;;;;;;;19.58;49.28;101218.75;5227642;28;20052;-76
2022/05/05 10:45:27;;;;;;;4.55;1.75;;;;;;;19.75;50.38;101213.25;5229861;28;20033;-75
2022/05/05 10:47:59;;;;;;;6.28;1.88;;;;;;;19.59;49.91;101210.69;5228303;28;20056;-76
2022/05/05 10:50:43;;;;;;;5.00;1.52;;;;;;;20.15;50.39;101213.28;5217414;28;20118;-76
2022/05/05 10:53:24;;;;;;;3.80;1.48;;;;;;;20.07;49.66;101209.41;5228712;28;20016;-76
2022/05/05 10:55:55;;;;;;;4.65;1.50;;;;;;;19.34;49.39;101214.94;5226244;28;20036;-78
2022/05/05 10:58:57;;;;;;;7.15;1.75;;;;;;;19.50;48.70;101224.53;5222427;28;20483;-75
2022/05/05 11:01:30;;;;;;;4.45;1.27;;;;;;;19.27;50.21;101221.59;5227263;28;20349;-77
2022/05/05 11:04:07;;;;;;;4.47;1.40;;;;;;;19.59;49.38;101209.84;5227186;28;20036;-76
2022/05/05 11:06:38;;;;;;;3.55;1.30;;;;;;;19.36;47.16;101210.41;5228110;28;20033;-77
2022/05/05 11:09:09;;;;;;;3.92;1.27;;;;;;;19.35;48.01;101214.88;5224532;28;20036;-76
2022/05/05 11:11:42;;;;;;;2.28;1.02;;;;;;;19.51;49.21;101226.25;5227836;28;20029;-76
2022/05/05 11:23:08;;;;;;;2.53;1.10;;;;;;;18.65;49.23;101218.31;5230897;28;20122;-76
2022/05/05 11:25:42;;;;;;;4.18;1.40;;;;;;;18.98;51.48;101219.81;5218365;28;20033;-75
2022/05/05 11:28:14;;;;;;;3.40;1.17;;;;;;;19.52;49.77;101222.63;5227976;28;20041;-75
2022/05/05 11:30:45;;;;;;;3.53;1.20;;;;;;;19.41;48.13;101217.13;5223836;28;20028;-78
2022/05/05 11:33:19;;;;;;;2.97;0.82;;;;;;;19.18;48.34;101217.69;5217321;28;20048;-78
2022/05/05 11:35:57;;;;;;;4.40;1.10;;;;;;;19.11;50.41;101220.78;5217084;28;20453;-79
2022/05/05 11:38:28;;;;;;;3.67;1.65;;;;;;;18.39;50.25;101218.94;5218568;28;20028;-78
2022/05/05 11:41:04;;;;;;;4.75;1.40;;;;;;;18.74;51.11;101222.09;5211807;28;20043;-78
2022/05/05 11:46:24;;;;;;;2.63;1.05;;;;;;;19.12;51.27;101215.38;5211005;28;20418;-79
2022/05/05 11:48:56;;;;;;;4.13;1.20;;;;;;;19.39;51.35;101216.38;5210781;28;20150;-78
2022/05/05 11:51:34;;;;;;;6.80;1.42;;;;;;;19.33;50.27;101227.38;5206752;28;20395;-78
2022/05/05 11:54:06;;;;;;;3.10;1.00;;;;;;;19.16;48.93;101214.28;5213786;28;20386;-78
2022/05/05 11:56:42;;;;;;;3.30;1.00;;;;;;;18.80;50.37;101219.06;5209661;28;20086;-79
2022/05/05 12:02:07;;;;;;;3.78;1.40;;;;;;;19.55;50.45;101217.13;5213156;28;20036;-78
2022/05/05 12:04:44;;;;;;;5.07;1.55;;;;;;;19.47;49.82;101224.69;5210483;28;20503;-79
2022/05/05 12:07:23;;;;;;;3.85;1.40;;;;;;;19.35;51.71;101221.97;5210788;28;20045;-79
2022/05/05 12:09:55;;;;;;;3.35;1.25;;;;;;;19.52;50.20;101214.69;5212812;28;20390;-78
2022/05/05 12:12:29;;;;;;;4.72;1.60;;;;;;;19.11;49.88;101215.47;5209356;28;20525;-78
2022/05/05 12:15:02;;;;;;;4.43;1.50;;;;;;;19.25;50.27;101224.31;5217241;28;20064;-79
2022/05/05 12:17:38;;;;;;;3.60;1.13;;;;;;;19.25;50.11;101224.31;5212285;28;20063;-79
2022/05/05 12:20:14;;;;;;;4.25;1.35;;;;;;;19.21;50.62;101220.16;5217871;28;20040;-79
2022/05/05 12:22:52;;;;;;;2.65;1.10;;;;;;;19.28;51.17;101223.28;5218509;28;20025;-78
2022/05/05 12:25:24;;;;;;;3.83;1.10;;;;;;;19.27;50.26;101217.13;5214473;28;20025;-78
2022/05/05 12:28:00;;;;;;;5.40;1.52;;;;;;;19.37;50.66;101212.97;5209598;28;20017;-78
2022/05/05 12:30:41;;;;;;;2.53;1.25;;;;;;;19.50;50.79;101207.75;5212921;28;20438;-79
2022/05/05 12:33:15;;;;;;;4.45;1.25;;;;;;;19.19;50.82;101210.56;5213288;28;20471;-79